sensor_id;sensor_type;location;lat;lon;timestamp;pressure;altitude;pressure_sealevel;temperature;humidity
13486;BME280;6815;59.336;17.998;2023-04-25T00:02:21;52151.03;;;-145.37;87.75
13486;BME280;6815;59.336;17.998;2023-04-25T00:04:47;52105.13;;;-145.37;89.01
13486;BME280;6815;59.336;17.998;2023-04-25T00:07:14;52085.16;;;-145.37;89.89
13486;BME280;6815;59.336;17.998;2023-04-25T00:09:41;52133.06;;;-145.37;90.33
13486;BME280;6815;59.336;17.998;2023-04-25T00:12:07;52149.03;;;-145.37;90.95
13486;BME280;6815;59.336;17.998;2023-04-25T00:14:33;52109.13;;;-145.37;91.47
13486;BME280;6815;59.336;17.998;2023-04-25T00:17:01;52085.16;;;-145.37;91.37
13486;BME280;6815;59.336;17.998;2023-04-25T00:19:28;52091.16;;;-145.37;92.43
13486;BME280;6815;59.336;17.998;2023-04-25T00:21:56;52105.13;;;-145.37;93.00
13486;BME280;6815;59.336;17.998;2023-04-25T00:24:23;52115.09;;;-145.37;93.27
13486;BME280;6815;59.336;17.998;2023-04-25T00:26:50;52121.09;;;-145.37;92.65
13486;BME280;6815;59.336;17.998;2023-04-25T00:29:15;52107.13;;;-145.37;93.08
13486;BME280;6815;59.336;17.998;2023-04-25T00:31:41;52091.16;;;-145.37;94.05
13486;BME280;6815;59.336;17.998;2023-04-25T00:34:07;52129.06;;;-145.37;94.10
13486;BME280;6815;59.336;17.998;2023-04-25T00:36:33;52123.09;;;-145.37;94.73
13486;BME280;6815;59.336;17.998;2023-04-25T00:38:58;52115.09;;;-145.37;94.20
13486;BME280;6815;59.336;17.998;2023-04-25T00:41:25;52119.09;;;-145.37;93.71
13486;BME280;6815;59.336;17.998;2023-04-25T00:43:54;52091.16;;;-145.37;94.50
13486;BME280;6815;59.336;17.998;2023-04-25T00:46:19;52103.13;;;-145.37;94.66
13486;BME280;6815;59.336;17.998;2023-04-25T00:48:45;52091.16;;;-145.37;94.04
13486;BME280;6815;59.336;17.998;2023-04-25T00:51:14;52097.13;;;-145.37;94.49
13486;BME280;6815;59.336;17.998;2023-04-25T00:53:41;52091.16;;;-145.37;95.23
13486;BME280;6815;59.336;17.998;2023-04-25T00:56:07;52119.09;;;-145.37;94.71
13486;BME280;6815;59.336;17.998;2023-04-25T00:58:33;52085.16;;;-145.37;94.60
13486;BME280;6815;59.336;17.998;2023-04-25T01:00:59;52103.13;;;-145.37;94.29
13486;BME280;6815;59.336;17.998;2023-04-25T01:03:26;52081.16;;;-145.37;95.39
13486;BME280;6815;59.336;17.998;2023-04-25T01:05:54;52103.13;;;-145.37;95.83
13486;BME280;6815;59.336;17.998;2023-04-25T01:08:23;52079.19;;;-145.37;95.45
13486;BME280;6815;59.336;17.998;2023-04-25T01:10:50;52097.13;;;-145.37;95.37
13486;BME280;6815;59.336;17.998;2023-04-25T01:13:15;52109.13;;;-145.37;95.56
13486;BME280;6815;59.336;17.998;2023-04-25T01:15:42;52113.09;;;-145.37;95.62
13486;BME280;6815;59.336;17.998;2023-04-25T01:18:09;52149.03;;;-145.37;95.74
13486;BME280;6815;59.336;17.998;2023-04-25T01:20:37;52119.09;;;-145.37;95.43
13486;BME280;6815;59.336;17.998;2023-04-25T01:23:03;52131.06;;;-145.37;95.26
13486;BME280;6815;59.336;17.998;2023-04-25T01:25:31;52119.09;;;-145.37;95.72
13486;BME280;6815;59.336;17.998;2023-04-25T01:27:58;52063.22;;;-145.37;96.21
13486;BME280;6815;59.336;17.998;2023-04-25T01:30:25;52101.13;;;-145.37;95.95
13486;BME280;6815;59.336;17.998;2023-04-25T01:32:52;52103.13;;;-145.37;96.42
13486;BME280;6815;59.336;17.998;2023-04-25T01:35:19;52121.09;;;-145.37;96.34
13486;BME280;6815;59.336;17.998;2023-04-25T01:37:46;52121.09;;;-145.37;95.82
13486;BME280;6815;59.336;17.998;2023-04-25T01:40:13;52129.06;;;-145.37;96.34
13486;BME280;6815;59.336;17.998;2023-04-25T01:42:41;52135.06;;;-145.37;96.33
13486;BME280;6815;59.336;17.998;2023-04-25T01:45:08;52109.13;;;-145.37;96.26
13486;BME280;6815;59.336;17.998;2023-04-25T01:47:34;52085.16;;;-145.37;96.07
13486;BME280;6815;59.336;17.998;2023-04-25T01:50:06;52125.09;;;-145.37;95.87
13486;BME280;6815;59.336;17.998;2023-04-25T01:52:32;52121.09;;;-145.37;95.94
13486;BME280;6815;59.336;17.998;2023-04-25T01:54:59;52067.19;;;-145.37;96.20
13486;BME280;6815;59.336;17.998;2023-04-25T01:57:26;52123.09;;;-145.37;96.32
13486;BME280;6815;59.336;17.998;2023-04-25T01:59:55;52161.03;;;-145.37;96.45
13486;BME280;6815;59.336;17.998;2023-04-25T02:02:23;52133.06;;;-145.37;97.48
13486;BME280;6815;59.336;17.998;2023-04-25T02:04:48;52085.16;;;-145.37;96.51
13486;BME280;6815;59.336;17.998;2023-04-25T02:07:14;52095.16;;;-145.37;96.47
13486;BME280;6815;59.336;17.998;2023-04-25T02:09:40;52129.06;;;-145.37;96.29
13486;BME280;6815;59.336;17.998;2023-04-25T02:12:09;52099.13;;;-145.37;96.60
13486;BME280;6815;59.336;17.998;2023-04-25T02:14:35;52125.09;;;-145.37;96.71
13486;BME280;6815;59.336;17.998;2023-04-25T02:17:00;52133.06;;;-145.37;97.43
13486;BME280;6815;59.336;17.998;2023-04-25T02:19:26;52083.16;;;-145.37;96.23
13486;BME280;6815;59.336;17.998;2023-04-25T02:21:51;52127.09;;;-145.37;96.34
13486;BME280;6815;59.336;17.998;2023-04-25T02:24:16;52069.19;;;-145.37;96.40
13486;BME280;6815;59.336;17.998;2023-04-25T02:26:42;52113.09;;;-145.37;96.66
13486;BME280;6815;59.336;17.998;2023-04-25T02:29:09;52111.13;;;-145.37;97.13
13486;BME280;6815;59.336;17.998;2023-04-25T02:31:34;52107.13;;;-145.37;97.60
13486;BME280;6815;59.336;17.998;2023-04-25T02:33:59;52095.16;;;-145.37;96.86
13486;BME280;6815;59.336;17.998;2023-04-25T02:36:25;52109.13;;;-145.37;97.54
13486;BME280;6815;59.336;17.998;2023-04-25T02:38:52;52095.16;;;-145.37;97.18
13486;BME280;6815;59.336;17.998;2023-04-25T02:41:18;52113.09;;;-145.37;97.23
13486;BME280;6815;59.336;17.998;2023-04-25T02:43:43;52107.13;;;-145.37;97.33
13486;BME280;6815;59.336;17.998;2023-04-25T02:46:09;52109.13;;;-145.37;98.14
13486;BME280;6815;59.336;17.998;2023-04-25T02:48:36;52123.09;;;-145.37;96.92
13486;BME280;6815;59.336;17.998;2023-04-25T02:51:01;52119.09;;;-145.37;97.35
13486;BME280;6815;59.336;17.998;2023-04-25T02:53:27;52151.03;;;-145.37;97.43
13486;BME280;6815;59.336;17.998;2023-04-25T02:55:52;52184.97;;;-145.37;97.37
13486;BME280;6815;59.336;17.998;2023-04-25T02:58:18;52097.13;;;-145.37;97.42
13486;BME280;6815;59.336;17.998;2023-04-25T03:00:43;52103.13;;;-145.37;97.35
13486;BME280;6815;59.336;17.998;2023-04-25T03:03:09;52113.09;;;-145.37;97.41
13486;BME280;6815;59.336;17.998;2023-04-25T03:05:34;52133.06;;;-145.37;98.08
13486;BME280;6815;59.336;17.998;2023-04-25T03:08:00;52135.06;;;-145.37;97.89
13486;BME280;6815;59.336;17.998;2023-04-25T03:10:26;52141.06;;;-145.37;97.89
13486;BME280;6815;59.336;17.998;2023-04-25T03:12:51;52081.16;;;-145.37;97.67
13486;BME280;6815;59.336;17.998;2023-04-25T03:15:16;52119.09;;;-145.37;97.48
13486;BME280;6815;59.336;17.998;2023-04-25T03:17:42;52119.09;;;-145.37;97.74
13486;BME280;6815;59.336;17.998;2023-04-25T03:20:08;52109.13;;;-145.37;97.54
13486;BME280;6815;59.336;17.998;2023-04-25T03:22:33;52097.13;;;-145.37;97.12
13486;BME280;6815;59.336;17.998;2023-04-25T03:25:00;52143.06;;;-145.37;97.08
13486;BME280;6815;59.336;17.998;2023-04-25T03:27:26;52167.00;;;-145.37;97.34
13486;BME280;6815;59.336;17.998;2023-04-25T03:29:51;52137.06;;;-145.37;96.33
13486;BME280;6815;59.336;17.998;2023-04-25T03:32:16;52131.06;;;-145.37;96.52
13486;BME280;6815;59.336;17.998;2023-04-25T03:34:42;52099.13;;;-145.37;96.74
13486;BME280;6815;59.336;17.998;2023-04-25T03:37:07;52143.06;;;-145.37;97.01
13486;BME280;6815;59.336;17.998;2023-04-25T03:39:33;52109.13;;;-145.37;96.16
13486;BME280;6815;59.336;17.998;2023-04-25T03:41:58;52125.09;;;-145.37;96.15
13486;BME280;6815;59.336;17.998;2023-04-25T03:44:24;52143.06;;;-145.37;95.67
13486;BME280;6815;59.336;17.998;2023-04-25T03:46:49;52123.09;;;-145.37;95.54
13486;BME280;6815;59.336;17.998;2023-04-25T03:49:16;52125.09;;;-145.37;96.22
13486;BME280;6815;59.336;17.998;2023-04-25T03:51:41;52079.19;;;-145.37;95.63
13486;BME280;6815;59.336;17.998;2023-04-25T03:54:07;52109.13;;;-145.37;95.51
13486;BME280;6815;59.336;17.998;2023-04-25T03:56:32;52139.06;;;-145.37;96.14
13486;BME280;6815;59.336;17.998;2023-04-25T03:58:58;52089.16;;;-145.37;96.06
13486;BME280;6815;59.336;17.998;2023-04-25T04:01:23;52127.09;;;-145.37;95.96
13486;BME280;6815;59.336;17.998;2023-04-25T04:03:48;52113.09;;;-145.37;95.71
13486;BME280;6815;59.336;17.998;2023-04-25T04:06:14;52123.09;;;-145.37;95.84
13486;BME280;6815;59.336;17.998;2023-04-25T04:08:40;52133.06;;;-145.37;96.14
13486;BME280;6815;59.336;17.998;2023-04-25T04:11:05;52157.03;;;-145.37;95.86
13486;BME280;6815;59.336;17.998;2023-04-25T04:13:31;52125.09;;;-145.37;96.72
13486;BME280;6815;59.336;17.998;2023-04-25T04:15:56;52123.09;;;-145.37;96.69
13486;BME280;6815;59.336;17.998;2023-04-25T04:18:23;52105.13;;;-145.37;97.20
13486;BME280;6815;59.336;17.998;2023-04-25T04:20:49;52105.13;;;-145.37;96.99
13486;BME280;6815;59.336;17.998;2023-04-25T04:23:14;52149.03;;;-145.37;97.12
13486;BME280;6815;59.336;17.998;2023-04-25T04:25:40;52125.09;;;-145.37;96.95
13486;BME280;6815;59.336;17.998;2023-04-25T04:28:07;52121.09;;;-145.37;97.10
13486;BME280;6815;59.336;17.998;2023-04-25T04:30:33;52119.09;;;-145.37;97.82
13486;BME280;6815;59.336;17.998;2023-04-25T04:33:04;52101.13;;;-145.37;97.47
13486;BME280;6815;59.336;17.998;2023-04-25T04:35:30;52101.13;;;-145.37;96.97
13486;BME280;6815;59.336;17.998;2023-04-25T04:37:55;52137.06;;;-145.37;96.49
13486;BME280;6815;59.336;17.998;2023-04-25T04:40:21;52139.06;;;-145.37;96.17
13486;BME280;6815;59.336;17.998;2023-04-25T04:42:47;52147.03;;;-145.37;97.21
13486;BME280;6815;59.336;17.998;2023-04-25T04:45:14;52133.06;;;-145.37;97.12
13486;BME280;6815;59.336;17.998;2023-04-25T04:47:41;52147.03;;;-145.37;96.62
13486;BME280;6815;59.336;17.998;2023-04-25T04:50:08;52145.03;;;-145.37;97.64
13486;BME280;6815;59.336;17.998;2023-04-25T04:52:35;52139.06;;;-145.37;97.34
13486;BME280;6815;59.336;17.998;2023-04-25T04:55:01;52109.13;;;-145.37;97.86
13486;BME280;6815;59.336;17.998;2023-04-25T04:57:28;52131.06;;;-145.37;97.31
13486;BME280;6815;59.336;17.998;2023-04-25T04:59:53;52149.03;;;-145.37;97.69
13486;BME280;6815;59.336;17.998;2023-04-25T05:02:19;52139.06;;;-145.37;97.79
13486;BME280;6815;59.336;17.998;2023-04-25T05:04:44;52127.09;;;-145.37;97.83
13486;BME280;6815;59.336;17.998;2023-04-25T05:07:10;52137.06;;;-145.37;98.09
13486;BME280;6815;59.336;17.998;2023-04-25T05:09:35;52135.06;;;-145.37;97.38
13486;BME280;6815;59.336;17.998;2023-04-25T05:12:00;52075.19;;;-145.37;98.44
13486;BME280;6815;59.336;17.998;2023-04-25T05:14:26;52091.16;;;-145.37;98.33
13486;BME280;6815;59.336;17.998;2023-04-25T05:16:51;52159.03;;;-145.37;97.99
13486;BME280;6815;59.336;17.998;2023-04-25T05:19:17;52113.09;;;-145.37;98.34
13486;BME280;6815;59.336;17.998;2023-04-25T05:21:43;52131.06;;;-145.37;98.93
13486;BME280;6815;59.336;17.998;2023-04-25T05:24:08;52107.13;;;-145.37;98.38
13486;BME280;6815;59.336;17.998;2023-04-25T05:26:34;52137.06;;;-145.37;98.69
13486;BME280;6815;59.336;17.998;2023-04-25T05:29:00;52133.06;;;-145.37;98.72
13486;BME280;6815;59.336;17.998;2023-04-25T05:31:26;52113.09;;;-145.37;98.05
13486;BME280;6815;59.336;17.998;2023-04-25T05:33:51;52119.09;;;-145.37;98.39
13486;BME280;6815;59.336;17.998;2023-04-25T05:36:19;52135.06;;;-145.37;98.99
13486;BME280;6815;59.336;17.998;2023-04-25T05:38:45;52117.09;;;-145.37;98.91
13486;BME280;6815;59.336;17.998;2023-04-25T05:41:10;52115.09;;;-145.37;98.80
13486;BME280;6815;59.336;17.998;2023-04-25T05:43:35;52109.13;;;-145.37;99.26
13486;BME280;6815;59.336;17.998;2023-04-25T05:46:01;52107.13;;;-145.37;99.32
13486;BME280;6815;59.336;17.998;2023-04-25T05:48:26;52091.16;;;-145.37;99.04
13486;BME280;6815;59.336;17.998;2023-04-25T05:50:53;52143.06;;;-145.37;99.31
13486;BME280;6815;59.336;17.998;2023-04-25T05:53:20;52147.03;;;-145.37;99.11
13486;BME280;6815;59.336;17.998;2023-04-25T05:55:47;52129.06;;;-145.37;98.92
13486;BME280;6815;59.336;17.998;2023-04-25T05:58:12;52127.09;;;-145.37;99.20
13486;BME280;6815;59.336;17.998;2023-04-25T06:00:38;52123.09;;;-145.37;99.32
13486;BME280;6815;59.336;17.998;2023-04-25T06:03:03;52133.06;;;-145.37;98.66
13486;BME280;6815;59.336;17.998;2023-04-25T06:05:29;52157.03;;;-145.37;98.34
13486;BME280;6815;59.336;17.998;2023-04-25T06:07:54;52097.13;;;-145.37;98.89
13486;BME280;6815;59.336;17.998;2023-04-25T06:10:20;52121.09;;;-145.37;98.42
13486;BME280;6815;59.336;17.998;2023-04-25T06:12:46;52113.09;;;-145.37;98.00
13486;BME280;6815;59.336;17.998;2023-04-25T06:15:11;52153.03;;;-145.37;97.43
13486;BME280;6815;59.336;17.998;2023-04-25T06:17:37;52115.09;;;-145.37;98.63
13486;BME280;6815;59.336;17.998;2023-04-25T06:20:02;52133.06;;;-145.37;98.50
13486;BME280;6815;59.336;17.998;2023-04-25T06:22:29;52127.09;;;-145.37;98.72
13486;BME280;6815;59.336;17.998;2023-04-25T06:24:54;52153.03;;;-145.37;99.22
13486;BME280;6815;59.336;17.998;2023-04-25T06:27:22;52135.06;;;-145.37;98.54
13486;BME280;6815;59.336;17.998;2023-04-25T06:29:48;52147.03;;;-145.37;98.91
13486;BME280;6815;59.336;17.998;2023-04-25T06:32:13;52157.03;;;-145.37;98.24
13486;BME280;6815;59.336;17.998;2023-04-25T06:34:39;52155.03;;;-145.37;99.15
13486;BME280;6815;59.336;17.998;2023-04-25T06:37:04;52161.03;;;-145.37;98.54
13486;BME280;6815;59.336;17.998;2023-04-25T06:39:30;52127.09;;;-145.37;97.88
13486;BME280;6815;59.336;17.998;2023-04-25T06:41:55;52109.13;;;-145.37;97.95
13486;BME280;6815;59.336;17.998;2023-04-25T06:44:20;52165.00;;;-145.37;97.94
13486;BME280;6815;59.336;17.998;2023-04-25T06:46:48;52089.16;;;-145.37;98.05
13486;BME280;6815;59.336;17.998;2023-04-25T06:49:13;52123.09;;;-145.37;98.31
13486;BME280;6815;59.336;17.998;2023-04-25T06:51:40;52129.06;;;-145.37;97.76
13486;BME280;6815;59.336;17.998;2023-04-25T06:54:05;52145.03;;;-145.37;97.16
13486;BME280;6815;59.336;17.998;2023-04-25T06:56:31;52131.06;;;-145.37;96.83
13486;BME280;6815;59.336;17.998;2023-04-25T06:58:56;52139.06;;;-145.37;97.38
13486;BME280;6815;59.336;17.998;2023-04-25T07:01:22;52143.06;;;-145.37;96.77
13486;BME280;6815;59.336;17.998;2023-04-25T07:03:47;52123.09;;;-145.37;97.63
13486;BME280;6815;59.336;17.998;2023-04-25T07:06:13;52141.06;;;-145.37;97.18
13486;BME280;6815;59.336;17.998;2023-04-25T07:08:38;52139.06;;;-145.37;97.64
13486;BME280;6815;59.336;17.998;2023-04-25T07:11:03;52123.09;;;-145.37;97.75
13486;BME280;6815;59.336;17.998;2023-04-25T07:13:30;52151.03;;;-145.37;97.35
13486;BME280;6815;59.336;17.998;2023-04-25T07:15:56;52153.03;;;-145.37;97.23
13486;BME280;6815;59.336;17.998;2023-04-25T07:18:22;52157.03;;;-145.37;97.18
13486;BME280;6815;59.336;17.998;2023-04-25T07:20:47;52123.09;;;-145.37;97.51
13486;BME280;6815;59.336;17.998;2023-04-25T07:23:13;52103.13;;;-145.37;96.86
13486;BME280;6815;59.336;17.998;2023-04-25T07:25:39;52133.06;;;-145.37;96.85
13486;BME280;6815;59.336;17.998;2023-04-25T07:28:04;52149.03;;;-145.37;96.79
13486;BME280;6815;59.336;17.998;2023-04-25T07:30:30;52135.06;;;-145.37;96.95
13486;BME280;6815;59.336;17.998;2023-04-25T07:32:56;52143.06;;;-145.37;96.35
13486;BME280;6815;59.336;17.998;2023-04-25T07:35:21;52109.13;;;-145.37;96.57
13486;BME280;6815;59.336;17.998;2023-04-25T07:37:47;52123.09;;;-145.37;97.25
13486;BME280;6815;59.336;17.998;2023-04-25T07:40:13;52103.13;;;-145.37;97.21
13486;BME280;6815;59.336;17.998;2023-04-25T07:42:40;52165.00;;;-145.37;98.00
13486;BME280;6815;59.336;17.998;2023-04-25T07:45:06;52149.03;;;-145.37;97.93
13486;BME280;6815;59.336;17.998;2023-04-25T07:47:32;52137.06;;;-145.37;97.68
13486;BME280;6815;59.336;17.998;2023-04-25T07:49:57;52175.00;;;-145.37;97.63
13486;BME280;6815;59.336;17.998;2023-04-25T07:52:23;52145.03;;;-145.37;97.08
13486;BME280;6815;59.336;17.998;2023-04-25T07:54:48;52131.06;;;-145.37;96.46
13486;BME280;6815;59.336;17.998;2023-04-25T07:57:14;52133.06;;;-145.37;96.87
13486;BME280;6815;59.336;17.998;2023-04-25T07:59:39;52165.00;;;-145.37;97.15
13486;BME280;6815;59.336;17.998;2023-04-25T08:02:05;52119.09;;;-145.37;96.86
13486;BME280;6815;59.336;17.998;2023-04-25T08:04:30;52177.00;;;-145.37;96.26
13486;BME280;6815;59.336;17.998;2023-04-25T08:06:56;52178.97;;;-145.37;96.92
13486;BME280;6815;59.336;17.998;2023-04-25T08:09:21;52163.00;;;-145.37;96.51
13486;BME280;6815;59.336;17.998;2023-04-25T08:11:47;52173.00;;;-145.37;96.32
13486;BME280;6815;59.336;17.998;2023-04-25T08:14:13;52113.09;;;-145.37;96.25
13486;BME280;6815;59.336;17.998;2023-04-25T08:16:39;52147.03;;;-145.37;96.28
13486;BME280;6815;59.336;17.998;2023-04-25T08:19:04;52147.03;;;-145.37;95.83
13486;BME280;6815;59.336;17.998;2023-04-25T08:21:30;52173.00;;;-145.37;96.42
13486;BME280;6815;59.336;17.998;2023-04-25T08:23:56;52198.94;;;-145.37;96.11
13486;BME280;6815;59.336;17.998;2023-04-25T08:26:23;52147.03;;;-145.37;95.83
13486;BME280;6815;59.336;17.998;2023-04-25T08:28:48;52125.09;;;-145.37;96.27
13486;BME280;6815;59.336;17.998;2023-04-25T08:31:14;52149.03;;;-145.37;96.66
13486;BME280;6815;59.336;17.998;2023-04-25T08:33:40;52153.03;;;-145.37;96.82
13486;BME280;6815;59.336;17.998;2023-04-25T08:36:05;52163.00;;;-145.37;97.48
13486;BME280;6815;59.336;17.998;2023-04-25T08:38:31;52139.06;;;-145.37;96.88
13486;BME280;6815;59.336;17.998;2023-04-25T08:40:56;52125.09;;;-145.37;97.06
13486;BME280;6815;59.336;17.998;2023-04-25T08:43:24;52145.03;;;-145.37;96.91
13486;BME280;6815;59.336;17.998;2023-04-25T08:45:52;52169.00;;;-145.37;97.07
13486;BME280;6815;59.336;17.998;2023-04-25T08:48:18;52173.00;;;-145.37;96.47
13486;BME280;6815;59.336;17.998;2023-04-25T08:50:52;52153.03;;;-145.37;96.99
13486;BME280;6815;59.336;17.998;2023-04-25T08:53:29;52155.03;;;-145.37;96.61
13486;BME280;6815;59.336;17.998;2023-04-25T08:55:57;52171.00;;;-145.37;96.56
13486;BME280;6815;59.336;17.998;2023-04-25T08:58:23;52125.09;;;-145.37;96.78
13486;BME280;6815;59.336;17.998;2023-04-25T09:00:49;52135.06;;;-145.37;96.28
13486;BME280;6815;59.336;17.998;2023-04-25T09:03:16;52121.09;;;-145.37;95.82
13486;BME280;6815;59.336;17.998;2023-04-25T09:05:42;52147.03;;;-145.37;96.06
13486;BME280;6815;59.336;17.998;2023-04-25T09:08:08;52153.03;;;-145.37;96.15
13486;BME280;6815;59.336;17.998;2023-04-25T09:10:34;52161.03;;;-145.37;95.90
13486;BME280;6815;59.336;17.998;2023-04-25T09:13:04;52141.06;;;-145.37;95.63
13486;BME280;6815;59.336;17.998;2023-04-25T09:15:31;52163.00;;;-145.37;95.81
13486;BME280;6815;59.336;17.998;2023-04-25T09:17:57;52157.03;;;-145.37;95.38
13486;BME280;6815;59.336;17.998;2023-04-25T09:20:26;52180.97;;;-145.37;95.54
13486;BME280;6815;59.336;17.998;2023-04-25T09:23:04;52192.97;;;-145.37;95.73
13486;BME280;6815;59.336;17.998;2023-04-25T09:25:37;52184.97;;;-145.37;96.09
13486;BME280;6815;59.336;17.998;2023-04-25T09:28:05;52149.03;;;-145.37;95.98
13486;BME280;6815;59.336;17.998;2023-04-25T09:30:33;52143.06;;;-145.37;96.11
13486;BME280;6815;59.336;17.998;2023-04-25T09:33:06;52153.03;;;-145.37;96.09
13486;BME280;6815;59.336;17.998;2023-04-25T09:35:38;52177.00;;;-145.37;95.60
13486;BME280;6815;59.336;17.998;2023-04-25T09:38:11;52145.03;;;-145.37;95.79
13486;BME280;6815;59.336;17.998;2023-04-25T09:40:45;52173.00;;;-145.37;95.13
13486;BME280;6815;59.336;17.998;2023-04-25T09:43:22;52139.06;;;-145.37;95.12
13486;BME280;6815;59.336;17.998;2023-04-25T09:45:48;52161.03;;;-145.37;94.92
13486;BME280;6815;59.336;17.998;2023-04-25T09:48:22;52145.03;;;-145.37;95.35
13486;BME280;6815;59.336;17.998;2023-04-25T09:51:03;52139.06;;;-145.37;95.10
13486;BME280;6815;59.336;17.998;2023-04-25T09:53:29;52143.06;;;-145.37;94.78
13486;BME280;6815;59.336;17.998;2023-04-25T09:55:55;52159.03;;;-145.37;94.88
13486;BME280;6815;59.336;17.998;2023-04-25T09:58:24;52159.03;;;-145.37;94.15
13486;BME280;6815;59.336;17.998;2023-04-25T10:00:51;52145.03;;;-145.37;93.20
13486;BME280;6815;59.336;17.998;2023-04-25T10:03:17;52155.03;;;-145.37;93.10
13486;BME280;6815;59.336;17.998;2023-04-25T10:05:43;52155.03;;;-145.37;93.21
13486;BME280;6815;59.336;17.998;2023-04-25T10:08:08;52165.00;;;-145.37;92.34
13486;BME280;6815;59.336;17.998;2023-04-25T10:10:36;52161.03;;;-145.37;92.02
13486;BME280;6815;59.336;17.998;2023-04-25T10:13:04;52159.03;;;-145.37;92.49
13486;BME280;6815;59.336;17.998;2023-04-25T10:15:34;52145.03;;;-145.37;92.06
13486;BME280;6815;59.336;17.998;2023-04-25T10:18:02;52161.03;;;-145.37;92.09
13486;BME280;6815;59.336;17.998;2023-04-25T10:20:29;52175.00;;;-145.37;92.52
13486;BME280;6815;59.336;17.998;2023-04-25T10:23:00;52139.06;;;-145.37;92.24
13486;BME280;6815;59.336;17.998;2023-04-25T10:25:28;52157.03;;;-145.37;92.03
13486;BME280;6815;59.336;17.998;2023-04-25T10:27:54;52131.06;;;-145.37;92.79
13486;BME280;6815;59.336;17.998;2023-04-25T10:30:21;52178.97;;;-145.37;93.05
13486;BME280;6815;59.336;17.998;2023-04-25T10:32:47;52186.97;;;-145.37;92.37
13486;BME280;6815;59.336;17.998;2023-04-25T10:35:24;52178.97;;;-145.37;92.15
13486;BME280;6815;59.336;17.998;2023-04-25T10:38:03;52198.94;;;-145.37;91.41
13486;BME280;6815;59.336;17.998;2023-04-25T10:40:33;52159.03;;;-145.37;91.17
13486;BME280;6815;59.336;17.998;2023-04-25T10:46:02;52194.94;;;-145.37;91.93
13486;BME280;6815;59.336;17.998;2023-04-25T10:48:31;52177.00;;;-145.37;92.17
13486;BME280;6815;59.336;17.998;2023-04-25T10:51:11;52129.06;;;-145.37;91.86
13486;BME280;6815;59.336;17.998;2023-04-25T10:53:37;52186.97;;;-145.37;92.68
13486;BME280;6815;59.336;17.998;2023-04-25T10:56:12;52173.00;;;-145.37;93.10
13486;BME280;6815;59.336;17.998;2023-04-25T10:58:45;52131.06;;;-145.37;92.33
13486;BME280;6815;59.336;17.998;2023-04-25T11:01:13;52157.03;;;-145.37;92.50
13486;BME280;6815;59.336;17.998;2023-04-25T11:03:42;52214.91;;;-145.37;91.84
13486;BME280;6815;59.336;17.998;2023-04-25T11:08:50;52145.03;;;-145.37;92.22
13486;BME280;6815;59.336;17.998;2023-04-25T11:11:17;52171.00;;;-145.37;92.10
13486;BME280;6815;59.336;17.998;2023-04-25T11:13:43;52165.00;;;-145.37;91.83
13486;BME280;6815;59.336;17.998;2023-04-25T11:16:09;52192.97;;;-145.37;91.50
13486;BME280;6815;59.336;17.998;2023-04-25T11:18:35;52178.97;;;-145.37;91.74
13486;BME280;6815;59.336;17.998;2023-04-25T11:21:00;52153.03;;;-145.37;91.52
13486;BME280;6815;59.336;17.998;2023-04-25T11:23:29;52171.00;;;-145.37;92.85
13486;BME280;6815;59.336;17.998;2023-04-25T11:25:55;52157.03;;;-145.37;91.90
13486;BME280;6815;59.336;17.998;2023-04-25T11:28:22;52135.06;;;-145.37;91.68
13486;BME280;6815;59.336;17.998;2023-04-25T11:30:49;52184.97;;;-145.37;91.78
13486;BME280;6815;59.336;17.998;2023-04-25T11:33:17;52167.00;;;-145.37;91.50
13486;BME280;6815;59.336;17.998;2023-04-25T11:35:43;52163.00;;;-145.37;91.48
13486;BME280;6815;59.336;17.998;2023-04-25T11:38:08;52214.91;;;-145.37;91.58
13486;BME280;6815;59.336;17.998;2023-04-25T11:40:36;52165.00;;;-145.37;91.54
13486;BME280;6815;59.336;17.998;2023-04-25T11:43:02;52157.03;;;-145.37;91.71
13486;BME280;6815;59.336;17.998;2023-04-25T11:45:28;52188.97;;;-145.37;91.27
13486;BME280;6815;59.336;17.998;2023-04-25T11:47:55;52177.00;;;-145.37;91.23
13486;BME280;6815;59.336;17.998;2023-04-25T11:50:21;52186.97;;;-145.37;91.77
13486;BME280;6815;59.336;17.998;2023-04-25T11:52:47;52210.91;;;-145.37;91.96
13486;BME280;6815;59.336;17.998;2023-04-25T11:55:18;52186.97;;;-145.37;92.56
13486;BME280;6815;59.336;17.998;2023-04-25T11:57:46;52171.00;;;-145.37;91.86
13486;BME280;6815;59.336;17.998;2023-04-25T12:00:20;52177.00;;;-145.37;91.83
13486;BME280;6815;59.336;17.998;2023-04-25T12:02:47;52157.03;;;-145.37;92.08
13486;BME280;6815;59.336;17.998;2023-04-25T12:05:15;52171.00;;;-145.37;92.03
13486;BME280;6815;59.336;17.998;2023-04-25T12:07:43;52178.97;;;-145.37;91.93
13486;BME280;6815;59.336;17.998;2023-04-25T12:10:13;52169.00;;;-145.37;92.38
13486;BME280;6815;59.336;17.998;2023-04-25T12:12:44;52180.97;;;-145.37;92.75
13486;BME280;6815;59.336;17.998;2023-04-25T12:15:18;52184.97;;;-145.37;92.18
13486;BME280;6815;59.336;17.998;2023-04-25T12:17:47;52167.00;;;-145.37;92.87
13486;BME280;6815;59.336;17.998;2023-04-25T12:20:17;52177.00;;;-145.37;92.50
13486;BME280;6815;59.336;17.998;2023-04-25T12:22:46;52155.03;;;-145.37;92.45
13486;BME280;6815;59.336;17.998;2023-04-25T12:28:18;52159.03;;;-145.37;92.11
13486;BME280;6815;59.336;17.998;2023-04-25T12:31:05;52167.00;;;-145.37;92.88
13486;BME280;6815;59.336;17.998;2023-04-25T12:33:33;52186.97;;;-145.37;92.31
13486;BME280;6815;59.336;17.998;2023-04-25T12:36:00;52184.97;;;-145.37;91.87
13486;BME280;6815;59.336;17.998;2023-04-25T12:38:31;52163.00;;;-145.37;92.03
13486;BME280;6815;59.336;17.998;2023-04-25T12:40:59;52202.94;;;-145.37;92.82
13486;BME280;6815;59.336;17.998;2023-04-25T12:43:25;52159.03;;;-145.37;92.54
13486;BME280;6815;59.336;17.998;2023-04-25T12:45:52;52180.97;;;-145.37;92.56
13486;BME280;6815;59.336;17.998;2023-04-25T12:48:18;52171.00;;;-145.37;93.28